sensor_id;sensor_type;location;lat;lon;timestamp;P1;durP1;ratioP1;P2;durP2;ratioP2
60917;SDS011;46792;38.854;-9.384;2023-10-13T00:03:07;5.40;;;3.70;;
60917;SDS011;46792;38.854;-9.384;2023-10-13T00:05:15;9.27;;;4.13;;
60917;SDS011;46792;38.854;-9.384;2023-10-13T00:07:37;7.22;;;2.90;;
60917;SDS011;46792;38.854;-9.384;2023-10-13T00:09:37;10.60;;;4.80;;
60917;SDS011;46792;38.854;-9.384;2023-10-13T00:11:40;7.80;;;4.32;;
60917;SDS011;46792;38.854;-9.384;2023-10-13T00:13:41;6.43;;;3.20;;
60917;SDS011;46792;38.854;-9.384;2023-10-13T00:15:44;11.10;;;3.90;;
60917;SDS011;46792;38.854;-9.384;2023-10-13T00:17:57;11.48;;;3.03;;
60917;SDS011;46792;38.854;-9.384;2023-10-13T00:19:58;6.20;;;3.38;;
60917;SDS011;46792;38.854;-9.384;2023-10-13T00:24:41;6.90;;;3.10;;
60917;SDS011;46792;38.854;-9.384;2023-10-13T00:27:04;5.47;;;3.33;;
60917;SDS011;46792;38.854;-9.384;2023-10-13T00:29:23;9.70;;;3.55;;
60917;SDS011;46792;38.854;-9.384;2023-10-13T00:32:02;8.65;;;3.35;;
60917;SDS011;46792;38.854;-9.384;2023-10-13T00:34:04;9.75;;;4.43;;
60917;SDS011;46792;38.854;-9.384;2023-10-13T00:36:20;18.33;;;4.85;;
60917;SDS011;46792;38.854;-9.384;2023-10-13T00:38:40;18.40;;;4.13;;
60917;SDS011;46792;38.854;-9.384;2023-10-13T00:40:40;8.15;;;3.85;;
60917;SDS011;46792;38.854;-9.384;2023-10-13T00:45:20;10.40;;;4.38;;
60917;SDS011;46792;38.854;-9.384;2023-10-13T00:47:22;8.65;;;4.20;;
60917;SDS011;46792;38.854;-9.384;2023-10-13T00:49:46;13.27;;;4.45;;
60917;SDS011;46792;38.854;-9.384;2023-10-13T00:51:48;7.30;;;3.60;;
60917;SDS011;46792;38.854;-9.384;2023-10-13T00:53:50;7.53;;;3.00;;
60917;SDS011;46792;38.854;-9.384;2023-10-13T00:55:51;10.27;;;4.53;;
60917;SDS011;46792;38.854;-9.384;2023-10-13T00:57:55;18.90;;;5.25;;
60917;SDS011;46792;38.854;-9.384;2023-10-13T00:59:57;11.40;;;4.57;;
60917;SDS011;46792;38.854;-9.384;2023-10-13T01:01:59;15.07;;;4.47;;
60917;SDS011;46792;38.854;-9.384;2023-10-13T01:04:23;9.02;;;4.80;;
60917;SDS011;46792;38.854;-9.384;2023-10-13T01:06:28;10.88;;;4.95;;
60917;SDS011;46792;38.854;-9.384;2023-10-13T01:08:32;8.82;;;3.85;;
60917;SDS011;46792;38.854;-9.384;2023-10-13T01:12:57;21.77;;;7.18;;
60917;SDS011;46792;38.854;-9.384;2023-10-13T01:15:03;11.65;;;6.13;;
60917;SDS011;46792;38.854;-9.384;2023-10-13T01:17:11;17.73;;;7.13;;
60917;SDS011;46792;38.854;-9.384;2023-10-13T01:19:35;13.95;;;6.30;;
60917;SDS011;46792;38.854;-9.384;2023-10-13T01:21:42;8.00;;;5.47;;
60917;SDS011;46792;38.854;-9.384;2023-10-13T01:23:48;14.30;;;5.32;;
60917;SDS011;46792;38.854;-9.384;2023-10-13T01:26:08;9.32;;;5.22;;
60917;SDS011;46792;38.854;-9.384;2023-10-13T01:28:28;15.55;;;5.40;;
60917;SDS011;46792;38.854;-9.384;2023-10-13T01:30:47;14.05;;;5.40;;
60917;SDS011;46792;38.854;-9.384;2023-10-13T01:32:52;12.80;;;6.03;;
60917;SDS011;46792;38.854;-9.384;2023-10-13T01:35:12;10.82;;;5.85;;
60917;SDS011;46792;38.854;-9.384;2023-10-13T01:37:31;9.30;;;6.60;;
60917;SDS011;46792;38.854;-9.384;2023-10-13T01:39:35;13.18;;;6.25;;
60917;SDS011;46792;38.854;-9.384;2023-10-13T01:41:35;14.40;;;6.73;;
60917;SDS011;46792;38.854;-9.384;2023-10-13T01:43:39;16.23;;;7.43;;
60917;SDS011;46792;38.854;-9.384;2023-10-13T01:45:58;16.38;;;7.35;;
60917;SDS011;46792;38.854;-9.384;2023-10-13T01:48:17;17.50;;;7.53;;
60917;SDS011;46792;38.854;-9.384;2023-10-13T01:50:40;13.63;;;7.45;;
60917;SDS011;46792;38.854;-9.384;2023-10-13T01:52:58;12.38;;;7.47;;
60917;SDS011;46792;38.854;-9.384;2023-10-13T01:55:17;13.93;;;7.70;;
60917;SDS011;46792;38.854;-9.384;2023-10-13T01:57:20;14.07;;;7.57;;
60917;SDS011;46792;38.854;-9.384;2023-10-13T02:01:32;20.33;;;8.55;;
60917;SDS011;46792;38.854;-9.384;2023-10-13T02:06:35;20.30;;;8.55;;
60917;SDS011;46792;38.854;-9.384;2023-10-13T02:08:38;14.85;;;8.15;;
60917;SDS011;46792;38.854;-9.384;2023-10-13T02:16:56;19.95;;;9.85;;
60917;SDS011;46792;38.854;-9.384;2023-10-13T02:19:31;14.75;;;11.82;;
60917;SDS011;46792;38.854;-9.384;2023-10-13T02:21:32;19.60;;;11.13;;
60917;SDS011;46792;38.854;-9.384;2023-10-13T02:23:58;20.50;;;10.02;;
60917;SDS011;46792;38.854;-9.384;2023-10-13T02:26:22;15.75;;;10.70;;
60917;SDS011;46792;38.854;-9.384;2023-10-13T02:28:30;13.45;;;9.50;;
60917;SDS011;46792;38.854;-9.384;2023-10-13T02:36:03;17.65;;;10.00;;
60917;SDS011;46792;38.854;-9.384;2023-10-13T02:38:05;15.50;;;10.48;;
60917;SDS011;46792;38.854;-9.384;2023-10-13T02:40:34;21.05;;;10.65;;
60917;SDS011;46792;38.854;-9.384;2023-10-13T02:42:36;15.43;;;10.52;;
60917;SDS011;46792;38.854;-9.384;2023-10-13T02:46:57;16.83;;;11.05;;
60917;SDS011;46792;38.854;-9.384;2023-10-13T02:49:17;17.65;;;10.65;;
60917;SDS011;46792;38.854;-9.384;2023-10-13T02:51:37;21.38;;;11.55;;
60917;SDS011;46792;38.854;-9.384;2023-10-13T02:53:44;18.77;;;12.57;;
60917;SDS011;46792;38.854;-9.384;2023-10-13T02:55:55;24.00;;;11.93;;
60917;SDS011;46792;38.854;-9.384;2023-10-13T02:58:17;20.80;;;11.35;;
60917;SDS011;46792;38.854;-9.384;2023-10-13T03:00:36;19.92;;;11.00;;
60917;SDS011;46792;38.854;-9.384;2023-10-13T03:02:55;18.10;;;11.48;;
60917;SDS011;46792;38.854;-9.384;2023-10-13T03:04:59;17.80;;;10.73;;
60917;SDS011;46792;38.854;-9.384;2023-10-13T03:09:42;16.17;;;11.07;;
60917;SDS011;46792;38.854;-9.384;2023-10-13T03:14:36;17.95;;;11.68;;
60917;SDS011;46792;38.854;-9.384;2023-10-13T03:16:59;17.65;;;11.65;;
60917;SDS011;46792;38.854;-9.384;2023-10-13T03:19:09;22.73;;;12.43;;
60917;SDS011;46792;38.854;-9.384;2023-10-13T03:21:10;19.58;;;12.10;;
60917;SDS011;46792;38.854;-9.384;2023-10-13T03:23:12;21.75;;;13.15;;
60917;SDS011;46792;38.854;-9.384;2023-10-13T03:28:29;22.83;;;13.88;;
60917;SDS011;46792;38.854;-9.384;2023-10-13T03:30:52;32.20;;;15.70;;
60917;SDS011;46792;38.854;-9.384;2023-10-13T03:32:53;28.52;;;14.60;;
60917;SDS011;46792;38.854;-9.384;2023-10-13T03:34:54;28.50;;;14.00;;
60917;SDS011;46792;38.854;-9.384;2023-10-13T03:40:11;31.90;;;15.57;;
60917;SDS011;46792;38.854;-9.384;2023-10-13T03:42:22;31.58;;;15.38;;
60917;SDS011;46792;38.854;-9.384;2023-10-13T03:44:22;32.30;;;15.25;;
60917;SDS011;46792;38.854;-9.384;2023-10-13T03:46:23;36.30;;;16.90;;
60917;SDS011;46792;38.854;-9.384;2023-10-13T03:48:44;45.35;;;17.20;;
60917;SDS011;46792;38.854;-9.384;2023-10-13T03:56:09;39.10;;;16.65;;
60917;SDS011;46792;38.854;-9.384;2023-10-13T03:58:30;38.03;;;17.58;;
60917;SDS011;46792;38.854;-9.384;2023-10-13T04:00:31;40.45;;;17.58;;
60917;SDS011;46792;38.854;-9.384;2023-10-13T04:02:53;35.13;;;17.52;;
60917;SDS011;46792;38.854;-9.384;2023-10-13T04:05:38;31.83;;;15.65;;
60917;SDS011;46792;38.854;-9.384;2023-10-13T04:08:04;35.22;;;16.65;;
60917;SDS011;46792;38.854;-9.384;2023-10-13T04:10:24;26.63;;;16.20;;
60917;SDS011;46792;38.854;-9.384;2023-10-13T04:12:43;32.83;;;17.08;;
60917;SDS011;46792;38.854;-9.384;2023-10-13T04:15:21;26.88;;;15.65;;
60917;SDS011;46792;38.854;-9.384;2023-10-13T04:17:42;25.83;;;15.10;;
60917;SDS011;46792;38.854;-9.384;2023-10-13T04:19:46;33.67;;;16.63;;
60917;SDS011;46792;38.854;-9.384;2023-10-13T04:22:05;20.98;;;14.10;;
60917;SDS011;46792;38.854;-9.384;2023-10-13T04:24:36;23.77;;;11.85;;
60917;SDS011;46792;38.854;-9.384;2023-10-13T04:27:17;17.67;;;11.95;;
60917;SDS011;46792;38.854;-9.384;2023-10-13T04:29:40;20.83;;;12.10;;
60917;SDS011;46792;38.854;-9.384;2023-10-13T04:32:18;30.60;;;12.70;;
60917;SDS011;46792;38.854;-9.384;2023-10-13T04:37:48;18.83;;;10.85;;
60917;SDS011;46792;38.854;-9.384;2023-10-13T04:43:26;16.15;;;9.65;;
60917;SDS011;46792;38.854;-9.384;2023-10-13T04:46:13;14.43;;;8.95;;
60917;SDS011;46792;38.854;-9.384;2023-10-13T04:48:40;12.35;;;8.48;;
60917;SDS011;46792;38.854;-9.384;2023-10-13T04:50:47;12.00;;;8.63;;
60917;SDS011;46792;38.854;-9.384;2023-10-13T04:56:28;10.48;;;6.97;;
60917;SDS011;46792;38.854;-9.384;2023-10-13T04:58:55;16.00;;;7.80;;
60917;SDS011;46792;38.854;-9.384;2023-10-13T05:01:14;10.80;;;7.40;;
60917;SDS011;46792;38.854;-9.384;2023-10-13T05:03:42;10.50;;;7.13;;
60917;SDS011;46792;38.854;-9.384;2023-10-13T05:06:12;15.43;;;6.60;;
60917;SDS011;46792;38.854;-9.384;2023-10-13T05:08:31;9.55;;;5.68;;
60917;SDS011;46792;38.854;-9.384;2023-10-13T05:10:50;8.48;;;5.50;;
60917;SDS011;46792;38.854;-9.384;2023-10-13T05:16:25;17.00;;;5.60;;
60917;SDS011;46792;38.854;-9.384;2023-10-13T05:18:46;12.05;;;4.60;;
60917;SDS011;46792;38.854;-9.384;2023-10-13T05:21:24;14.13;;;5.40;;
60917;SDS011;46792;38.854;-9.384;2023-10-13T05:23:58;8.88;;;4.95;;
60917;SDS011;46792;38.854;-9.384;2023-10-13T05:26:17;11.45;;;4.93;;
60917;SDS011;46792;38.854;-9.384;2023-10-13T05:36:48;7.18;;;3.70;;
60917;SDS011;46792;38.854;-9.384;2023-10-13T05:39:07;5.63;;;4.35;;
60917;SDS011;46792;38.854;-9.384;2023-10-13T05:44:23;8.02;;;4.63;;
60917;SDS011;46792;38.854;-9.384;2023-10-13T05:46:52;9.88;;;4.10;;
60917;SDS011;46792;38.854;-9.384;2023-10-13T05:49:21;10.25;;;3.95;;
60917;SDS011;46792;38.854;-9.384;2023-10-13T05:51:40;10.30;;;4.07;;
60917;SDS011;46792;38.854;-9.384;2023-10-13T05:53:41;5.93;;;3.88;;
60917;SDS011;46792;38.854;-9.384;2023-10-13T05:56:03;6.45;;;3.70;;
60917;SDS011;46792;38.854;-9.384;2023-10-13T05:58:22;8.65;;;3.88;;
60917;SDS011;46792;38.854;-9.384;2023-10-13T06:01:03;8.70;;;4.15;;
60917;SDS011;46792;38.854;-9.384;2023-10-13T06:03:23;12.13;;;4.00;;
60917;SDS011;46792;38.854;-9.384;2023-10-13T06:05:42;9.70;;;3.63;;
60917;SDS011;46792;38.854;-9.384;2023-10-13T06:08:01;5.10;;;3.85;;
60917;SDS011;46792;38.854;-9.384;2023-10-13T06:10:20;8.55;;;4.70;;
60917;SDS011;46792;38.854;-9.384;2023-10-13T06:12:40;8.15;;;3.70;;
60917;SDS011;46792;38.854;-9.384;2023-10-13T06:15:10;17.65;;;5.30;;
60917;SDS011;46792;38.854;-9.384;2023-10-13T06:17:29;8.70;;;4.40;;
60917;SDS011;46792;38.854;-9.384;2023-10-13T06:19:48;13.70;;;4.18;;
60917;SDS011;46792;38.854;-9.384;2023-10-13T06:22:26;13.82;;;4.50;;
60917;SDS011;46792;38.854;-9.384;2023-10-13T06:25:06;8.40;;;5.05;;
60917;SDS011;46792;38.854;-9.384;2023-10-13T06:27:25;10.73;;;4.47;;
60917;SDS011;46792;38.854;-9.384;2023-10-13T06:29:48;10.55;;;5.07;;
60917;SDS011;46792;38.854;-9.384;2023-10-13T06:32:07;14.05;;;4.45;;
60917;SDS011;46792;38.854;-9.384;2023-10-13T06:34:11;9.13;;;4.78;;
60917;SDS011;46792;38.854;-9.384;2023-10-13T06:36:15;8.40;;;5.22;;
60917;SDS011;46792;38.854;-9.384;2023-10-13T06:38:17;12.20;;;5.22;;
60917;SDS011;46792;38.854;-9.384;2023-10-13T06:40:21;13.87;;;7.07;;
60917;SDS011;46792;38.854;-9.384;2023-10-13T06:42:52;11.15;;;6.60;;
60917;SDS011;46792;38.854;-9.384;2023-10-13T06:45:16;15.88;;;8.05;;
60917;SDS011;46792;38.854;-9.384;2023-10-13T06:47:18;14.98;;;8.90;;
60917;SDS011;46792;38.854;-9.384;2023-10-13T06:49:20;18.67;;;9.95;;
60917;SDS011;46792;38.854;-9.384;2023-10-13T06:51:23;13.80;;;9.82;;
60917;SDS011;46792;38.854;-9.384;2023-10-13T06:53:26;17.52;;;10.43;;
60917;SDS011;46792;38.854;-9.384;2023-10-13T06:55:29;17.40;;;10.40;;
60917;SDS011;46792;38.854;-9.384;2023-10-13T06:57:35;21.70;;;12.70;;
60917;SDS011;46792;38.854;-9.384;2023-10-13T06:59:36;17.73;;;11.63;;
60917;SDS011;46792;38.854;-9.384;2023-10-13T07:01:39;22.38;;;11.30;;
60917;SDS011;46792;38.854;-9.384;2023-10-13T07:03:42;16.77;;;10.35;;
60917;SDS011;46792;38.854;-9.384;2023-10-13T07:06:05;15.85;;;11.20;;
60917;SDS011;46792;38.854;-9.384;2023-10-13T07:08:11;19.73;;;10.77;;
60917;SDS011;46792;38.854;-9.384;2023-10-13T07:17:06;28.42;;;13.10;;
60917;SDS011;46792;38.854;-9.384;2023-10-13T07:19:08;19.23;;;12.80;;
60917;SDS011;46792;38.854;-9.384;2023-10-13T07:21:09;23.48;;;14.30;;
60917;SDS011;46792;38.854;-9.384;2023-10-13T07:23:10;24.83;;;14.50;;
60917;SDS011;46792;38.854;-9.384;2023-10-13T07:25:20;20.70;;;12.95;;
60917;SDS011;46792;38.854;-9.384;2023-10-13T07:27:26;21.17;;;14.43;;
60917;SDS011;46792;38.854;-9.384;2023-10-13T07:29:26;47.83;;;14.95;;
60917;SDS011;46792;38.854;-9.384;2023-10-13T07:31:27;27.55;;;13.98;;
60917;SDS011;46792;38.854;-9.384;2023-10-13T07:33:28;22.13;;;14.48;;
60917;SDS011;46792;38.854;-9.384;2023-10-13T07:35:31;20.77;;;14.57;;
60917;SDS011;46792;38.854;-9.384;2023-10-13T07:37:35;24.27;;;16.67;;
60917;SDS011;46792;38.854;-9.384;2023-10-13T07:39:36;30.58;;;16.10;;
60917;SDS011;46792;38.854;-9.384;2023-10-13T07:41:40;27.92;;;16.92;;
60917;SDS011;46792;38.854;-9.384;2023-10-13T07:43:43;29.83;;;17.50;;
60917;SDS011;46792;38.854;-9.384;2023-10-13T07:45:45;28.33;;;16.90;;
60917;SDS011;46792;38.854;-9.384;2023-10-13T07:47:45;33.05;;;18.45;;
60917;SDS011;46792;38.854;-9.384;2023-10-13T07:49:46;29.35;;;17.75;;
60917;SDS011;46792;38.854;-9.384;2023-10-13T07:51:50;431.38;;;43.10;;
60917;SDS011;46792;38.854;-9.384;2023-10-13T07:53:57;81.30;;;22.42;;
60917;SDS011;46792;38.854;-9.384;2023-10-13T07:56:19;71.20;;;20.75;;
60917;SDS011;46792;38.854;-9.384;2023-10-13T07:58:21;37.88;;;19.90;;
60917;SDS011;46792;38.854;-9.384;2023-10-13T08:00:27;38.17;;;19.67;;
60917;SDS011;46792;38.854;-9.384;2023-10-13T08:02:43;29.73;;;18.05;;
60917;SDS011;46792;38.854;-9.384;2023-10-13T08:04:51;32.08;;;19.05;;
60917;SDS011;46792;38.854;-9.384;2023-10-13T08:06:53;33.75;;;17.20;;
60917;SDS011;46792;38.854;-9.384;2023-10-13T08:09:02;30.27;;;16.85;;
60917;SDS011;46792;38.854;-9.384;2023-10-13T08:11:10;25.58;;;15.13;;
60917;SDS011;46792;38.854;-9.384;2023-10-13T08:13:30;28.83;;;16.15;;
60917;SDS011;46792;38.854;-9.384;2023-10-13T08:15:49;21.75;;;14.20;;
60917;SDS011;46792;38.854;-9.384;2023-10-13T08:21:02;27.63;;;13.43;;
60917;SDS011;46792;38.854;-9.384;2023-10-13T08:23:03;32.38;;;13.55;;
60917;SDS011;46792;38.854;-9.384;2023-10-13T08:25:39;24.50;;;12.07;;
60917;SDS011;46792;38.854;-9.384;2023-10-13T08:27:59;24.65;;;12.30;;
60917;SDS011;46792;38.854;-9.384;2023-10-13T08:30:26;31.35;;;11.32;;
60917;SDS011;46792;38.854;-9.384;2023-10-13T08:32:27;15.55;;;9.85;;
60917;SDS011;46792;38.854;-9.384;2023-10-13T08:34:31;19.10;;;9.70;;
60917;SDS011;46792;38.854;-9.384;2023-10-13T08:36:44;18.73;;;10.02;;
60917;SDS011;46792;38.854;-9.384;2023-10-13T08:38:45;21.00;;;9.43;;
60917;SDS011;46792;38.854;-9.384;2023-10-13T08:40:57;16.58;;;8.25;;
60917;SDS011;46792;38.854;-9.384;2023-10-13T08:43:17;14.77;;;8.48;;
60917;SDS011;46792;38.854;-9.384;2023-10-13T08:45:18;11.77;;;7.20;;
60917;SDS011;46792;38.854;-9.384;2023-10-13T08:47:28;14.65;;;7.10;;
60917;SDS011;46792;38.854;-9.384;2023-10-13T08:49:36;9.98;;;5.80;;
60917;SDS011;46792;38.854;-9.384;2023-10-13T08:51:40;19.58;;;6.60;;
60917;SDS011;46792;38.854;-9.384;2023-10-13T08:53:45;15.20;;;6.30;;
60917;SDS011;46792;38.854;-9.384;2023-10-13T08:56:13;15.30;;;6.75;;
60917;SDS011;46792;38.854;-9.384;2023-10-13T08:58:55;10.25;;;5.78;;
60917;SDS011;46792;38.854;-9.384;2023-10-13T09:01:14;10.25;;;6.15;;
60917;SDS011;46792;38.854;-9.384;2023-10-13T09:03:55;14.25;;;6.38;;
60917;SDS011;46792;38.854;-9.384;2023-10-13T09:06:18;14.18;;;6.32;;
60917;SDS011;46792;38.854;-9.384;2023-10-13T09:08:26;13.65;;;6.90;;
60917;SDS011;46792;38.854;-9.384;2023-10-13T09:10:44;9.77;;;6.10;;
60917;SDS011;46792;38.854;-9.384;2023-10-13T09:13:05;17.88;;;5.00;;
60917;SDS011;46792;38.854;-9.384;2023-10-13T09:15:11;15.23;;;6.78;;
60917;SDS011;46792;38.854;-9.384;2023-10-13T09:17:14;7.57;;;5.03;;
60917;SDS011;46792;38.854;-9.384;2023-10-13T09:19:18;10.52;;;4.97;;
60917;SDS011;46792;38.854;-9.384;2023-10-13T09:21:21;12.55;;;4.72;;
60917;SDS011;46792;38.854;-9.384;2023-10-13T09:23:36;11.98;;;4.68;;
60917;SDS011;46792;38.854;-9.384;2023-10-13T09:25:48;11.38;;;4.63;;
60917;SDS011;46792;38.854;-9.384;2023-10-13T09:28:00;10.23;;;5.13;;
60917;SDS011;46792;38.854;-9.384;2023-10-13T09:30:10;8.50;;;5.00;;
60917;SDS011;46792;38.854;-9.384;2023-10-13T09:32:24;12.38;;;4.93;;
60917;SDS011;46792;38.854;-9.384;2023-10-13T09:34:24;12.07;;;3.80;;
60917;SDS011;46792;38.854;-9.384;2023-10-13T09:36:29;5.75;;;3.90;;
60917;SDS011;46792;38.854;-9.384;2023-10-13T09:38:32;6.80;;;3.60;;
60917;SDS011;46792;38.854;-9.384;2023-10-13T09:40:53;13.50;;;4.25;;
60917;SDS011;46792;38.854;-9.384;2023-10-13T09:43:19;26.73;;;4.20;;
60917;SDS011;46792;38.854;-9.384;2023-10-13T09:45:23;12.27;;;4.13;;
60917;SDS011;46792;38.854;-9.384;2023-10-13T09:47:28;14.45;;;3.80;;
60917;SDS011;46792;38.854;-9.384;2023-10-13T09:49:36;7.18;;;4.18;;
60917;SDS011;46792;38.854;-9.384;2023-10-13T09:51:45;15.82;;;4.10;;
60917;SDS011;46792;38.854;-9.384;2023-10-13T09:53:58;8.55;;;4.80;;
60917;SDS011;46792;38.854;-9.384;2023-10-13T09:58:27;18.90;;;4.35;;
60917;SDS011;46792;38.854;-9.384;2023-10-13T10:00:40;12.10;;;5.47;;
60917;SDS011;46792;38.854;-9.384;2023-10-13T10:03:00;6.88;;;4.47;;
60917;SDS011;46792;38.854;-9.384;2023-10-13T10:05:23;8.50;;;5.68;;
60917;SDS011;46792;38.854;-9.384;2023-10-13T10:07:25;5.93;;;4.55;;
60917;SDS011;46792;38.854;-9.384;2023-10-13T10:09:33;13.93;;;4.88;;
60917;SDS011;46792;38.854;-9.384;2023-10-13T10:11:49;11.57;;;4.82;;
60917;SDS011;46792;38.854;-9.384;2023-10-13T10:14:39;9.15;;;4.85;;
60917;SDS011;46792;38.854;-9.384;2023-10-13T10:19:08;16.63;;;5.63;;
60917;SDS011;46792;38.854;-9.384;2023-10-13T10:21:33;32.15;;;6.13;;
60917;SDS011;46792;38.854;-9.384;2023-10-13T10:23:54;11.25;;;5.70;;
60917;SDS011;46792;38.854;-9.384;2023-10-13T10:25:55;17.65;;;6.20;;
60917;SDS011;46792;38.854;-9.384;2023-10-13T10:28:15;15.30;;;5.85;;
60917;SDS011;46792;38.854;-9.384;2023-10-13T10:30:23;11.23;;;6.07;;
60917;SDS011;46792;38.854;-9.384;2023-10-13T10:32:34;11.90;;;6.15;;
60917;SDS011;46792;38.854;-9.384;2023-10-13T10:34:41;10.82;;;5.80;;
60917;SDS011;46792;38.854;-9.384;2023-10-13T10:36:42;9.75;;;5.50;;
60917;SDS011;46792;38.854;-9.384;2023-10-13T10:39:05;11.80;;;5.15;;
60917;SDS011;46792;38.854;-9.384;2023-10-13T10:41:06;19.67;;;5.18;;
60917;SDS011;46792;38.854;-9.384;2023-10-13T10:43:07;15.95;;;5.35;;
60917;SDS011;46792;38.854;-9.384;2023-10-13T10:45:09;14.75;;;6.00;;
60917;SDS011;46792;38.854;-9.384;2023-10-13T10:47:15;25.77;;;5.55;;
60917;SDS011;46792;38.854;-9.384;2023-10-13T10:49:36;12.90;;;6.47;;
60917;SDS011;46792;38.854;-9.384;2023-10-13T10:51:40;13.40;;;6.28;;
60917;SDS011;46792;38.854;-9.384;2023-10-13T10:53:45;12.27;;;5.97;;
60917;SDS011;46792;38.854;-9.384;2023-10-13T10:55:46;17.35;;;6.00;;
60917;SDS011;46792;38.854;-9.384;2023-10-13T10:57:47;8.13;;;6.25;;
60917;SDS011;46792;38.854;-9.384;2023-10-13T11:00:17;14.20;;;5.45;;
60917;SDS011;46792;38.854;-9.384;2023-10-13T11:02:19;12.55;;;5.75;;
60917;SDS011;46792;38.854;-9.384;2023-10-13T11:04:31;11.95;;;5.18;;
60917;SDS011;46792;38.854;-9.384;2023-10-13T11:09:01;13.90;;;6.25;;
60917;SDS011;46792;38.854;-9.384;2023-10-13T11:11:30;14.73;;;6.07;;
60917;SDS011;46792;38.854;-9.384;2023-10-13T11:13:40;8.90;;;5.53;;
60917;SDS011;46792;38.854;-9.384;2023-10-13T11:16:03;12.38;;;6.00;;
60917;SDS011;46792;38.854;-9.384;2023-10-13T11:18:08;22.65;;;5.25;;
60917;SDS011;46792;38.854;-9.384;2023-10-13T11:20:16;18.17;;;5.70;;
60917;SDS011;46792;38.854;-9.384;2023-10-13T11:22:19;16.15;;;5.47;;
60917;SDS011;46792;38.854;-9.384;2023-10-13T11:24:58;11.90;;;5.32;;
60917;SDS011;46792;38.854;-9.384;2023-10-13T11:26:59;13.48;;;5.65;;
60917;SDS011;46792;38.854;-9.384;2023-10-13T11:29:02;13.70;;;5.30;;
60917;SDS011;46792;38.854;-9.384;2023-10-13T11:31:10;16.88;;;5.57;;
60917;SDS011;46792;38.854;-9.384;2023-10-13T11:33:11;12.20;;;4.75;;
60917;SDS011;46792;38.854;-9.384;2023-10-13T11:35:18;36.45;;;5.13;;
60917;SDS011;46792;38.854;-9.384;2023-10-13T11:37:22;16.00;;;4.97;;
60917;SDS011;46792;38.854;-9.384;2023-10-13T11:39:38;16.45;;;4.95;;
60917;SDS011;46792;38.854;-9.384;2023-10-13T11:43:51;15.38;;;5.15;;
60917;SDS011;46792;38.854;-9.384;2023-10-13T11:45:53;21.77;;;5.93;;
60917;SDS011;46792;38.854;-9.384;2023-10-13T11:48:17;10.45;;;4.72;;
60917;SDS011;46792;38.854;-9.384;2023-10-13T11:50:17;16.25;;;5.68;;
60917;SDS011;46792;38.854;-9.384;2023-10-13T11:52:33;17.38;;;4.93;;
60917;SDS011;46792;38.854;-9.384;2023-10-13T11:54:33;35.28;;;6.00;;
60917;SDS011;46792;38.854;-9.384;2023-10-13T11:56:54;17.77;;;4.75;;
60917;SDS011;46792;38.854;-9.384;2023-10-13T11:58:58;9.38;;;5.03;;
60917;SDS011;46792;38.854;-9.384;2023-10-13T12:01:01;35.15;;;6.53;;
60917;SDS011;46792;38.854;-9.384;2023-10-13T12:03:15;18.90;;;6.30;;
60917;SDS011;46792;38.854;-9.384;2023-10-13T12:05:34;12.32;;;5.47;;
60917;SDS011;46792;38.854;-9.384;2023-10-13T12:07:56;53.25;;;6.60;;
60917;SDS011;46792;38.854;-9.384;2023-10-13T12:10:03;13.60;;;5.93;;
60917;SDS011;46792;38.854;-9.384;2023-10-13T12:12:06;13.23;;;5.60;;
60917;SDS011;46792;38.854;-9.384;2023-10-13T12:14:08;24.92;;;6.68;;
60917;SDS011;46792;38.854;-9.384;2023-10-13T12:16:17;23.20;;;6.43;;
60917;SDS011;46792;38.854;-9.384;2023-10-13T12:18:19;13.27;;;6.82;;
60917;SDS011;46792;38.854;-9.384;2023-10-13T12:20:20;16.27;;;7.38;;
60917;SDS011;46792;38.854;-9.384;2023-10-13T12:22:32;17.38;;;6.28;;
60917;SDS011;46792;38.854;-9.384;2023-10-13T12:24:38;28.20;;;7.07;;
60917;SDS011;46792;38.854;-9.384;2023-10-13T12:26:42;22.75;;;6.95;;
60917;SDS011;46792;38.854;-9.384;2023-10-13T12:28:43;44.30;;;6.88;;
60917;SDS011;46792;38.854;-9.384;2023-10-13T12:30:51;74.65;;;8.52;;
60917;SDS011;46792;38.854;-9.384;2023-10-13T12:33:11;23.25;;;6.63;;
60917;SDS011;46792;38.854;-9.384;2023-10-13T12:35:12;18.52;;;6.35;;
60917;SDS011;46792;38.854;-9.384;2023-10-13T12:37:12;53.38;;;9.88;;
60917;SDS011;46792;38.854;-9.384;2023-10-13T12:39:32;20.80;;;6.78;;
60917;SDS011;46792;38.854;-9.384;2023-10-13T12:42:11;9.20;;;5.50;;
60917;SDS011;46792;38.854;-9.384;2023-10-13T12:44:29;28.92;;;6.78;;
60917;SDS011;46792;38.854;-9.384;2023-10-13T12:46:49;23.42;;;7.03;;
60917;SDS011;46792;38.854;-9.384;2023-10-13T12:49:08;26.65;;;6.57;;
60917;SDS011;46792;38.854;-9.384;2023-10-13T12:51:54;28.10;;;6.85;;
60917;SDS011;46792;38.854;-9.384;2023-10-13T12:54:13;99.22;;;9.25;;
60917;SDS011;46792;38.854;-9.384;2023-10-13T12:56:33;27.95;;;6.32;;
60917;SDS011;46792;38.854;-9.384;2023-10-13T12:58:53;23.83;;;6.22;;
60917;SDS011;46792;38.854;-9.384;2023-10-13T13:00:58;11.20;;;5.30;;
60917;SDS011;46792;38.854;-9.384;2023-10-13T13:03:06;15.88;;;5.85;;
60917;SDS011;46792;38.854;-9.384;2023-10-13T13:05:12;15.70;;;6.18;;
60917;SDS011;46792;38.854;-9.384;2023-10-13T13:07:13;24.65;;;6.85;;
60917;SDS011;46792;38.854;-9.384;2023-10-13T13:09:13;28.13;;;6.18;;
60917;SDS011;46792;38.854;-9.384;2023-10-13T13:11:14;12.35;;;6.55;;
60917;SDS011;46792;38.854;-9.384;2023-10-13T13:13:33;15.77;;;5.82;;
60917;SDS011;46792;38.854;-9.384;2023-10-13T13:15:34;14.65;;;6.88;;
60917;SDS011;46792;38.854;-9.384;2023-10-13T13:17:35;15.43;;;5.93;;
60917;SDS011;46792;38.854;-9.384;2023-10-13T13:19:37;20.83;;;7.55;;
60917;SDS011;46792;38.854;-9.384;2023-10-13T13:21:41;43.08;;;7.35;;
60917;SDS011;46792;38.854;-9.384;2023-10-13T13:23:43;12.93;;;6.15;;
60917;SDS011;46792;38.854;-9.384;2023-10-13T13:25:45;14.57;;;6.15;;
60917;SDS011;46792;38.854;-9.384;2023-10-13T13:27:46;16.08;;;6.35;;
60917;SDS011;46792;38.854;-9.384;2023-10-13T13:29:46;24.90;;;6.63;;
60917;SDS011;46792;38.854;-9.384;2023-10-13T13:31:47;25.25;;;6.22;;
60917;SDS011;46792;38.854;-9.384;2023-10-13T13:33:48;9.40;;;5.13;;
60917;SDS011;46792;38.854;-9.384;2023-10-13T13:35:53;15.05;;;5.05;;
60917;SDS011;46792;38.854;-9.384;2023-10-13T13:39:56;33.67;;;6.15;;
60917;SDS011;46792;38.854;-9.384;2023-10-13T13:42:17;20.30;;;5.78;;
60917;SDS011;46792;38.854;-9.384;2023-10-13T13:44:18;28.58;;;6.05;;
60917;SDS011;46792;38.854;-9.384;2023-10-13T13:46:19;19.80;;;5.45;;
60917;SDS011;46792;38.854;-9.384;2023-10-13T13:48:43;22.67;;;5.95;;
60917;SDS011;46792;38.854;-9.384;2023-10-13T13:52:52;14.35;;;5.75;;
60917;SDS011;46792;38.854;-9.384;2023-10-13T13:54:56;36.17;;;6.60;;
60917;SDS011;46792;38.854;-9.384;2023-10-13T13:57:02;14.93;;;5.85;;
60917;SDS011;46792;38.854;-9.384;2023-10-13T14:01:45;19.30;;;6.25;;
60917;SDS011;46792;38.854;-9.384;2023-10-13T14:04:05;19.90;;;6.38;;
60917;SDS011;46792;38.854;-9.384;2023-10-13T14:06:09;22.92;;;6.80;;
60917;SDS011;46792;38.854;-9.384;2023-10-13T14:08:17;13.60;;;6.13;;
60917;SDS011;46792;38.854;-9.384;2023-10-13T14:13:16;12.23;;;6.82;;
60917;SDS011;46792;38.854;-9.384;2023-10-13T14:15:16;14.93;;;6.30;;
60917;SDS011;46792;38.854;-9.384;2023-10-13T14:17:38;18.95;;;6.20;;
60917;SDS011;46792;38.854;-9.384;2023-10-13T14:20:01;12.52;;;5.85;;
60917;SDS011;46792;38.854;-9.384;2023-10-13T14:22:16;33.45;;;7.70;;
60917;SDS011;46792;38.854;-9.384;2023-10-13T14:24:16;17.48;;;7.00;;
60917;SDS011;46792;38.854;-9.384;2023-10-13T14:26:19;18.65;;;7.20;;
60917;SDS011;46792;38.854;-9.384;2023-10-13T14:28:21;19.13;;;7.13;;
60917;SDS011;46792;38.854;-9.384;2023-10-13T14:30:22;24.55;;;7.88;;